Cea Eagle — 3FWZ9 — position and weather

sailwx.info

Track history (hours):
 
Tides and Currents Weather Stations Pressure Air Temp Water Temp Dewpoint Dewpoint Depression Visibility Wind Speed Wind Dir Waves Ship Positions

Cea Eagle

Last reported at 2017-Dec-02 12:37 UTC. Time now 2017-Dec-12 23:55 UTC.
Position N 43°31' E 028°43'.
Warning: this ship's position is 10 days out of date.

Length 228 m.

Type: Ship. MMSI: 351071424.

Date/timePositionNaut miles runAvg speedWind from/ knotsBaromVisibWave heightAir tempDewpointWater temp
2017-Dec-02 12:37N 43°31' E 028°43'1 7.4
2017-Dec-02 12:31N 43°32' E 028°44'4 7.0
2017-Dec-02 12:01N 43°35' E 028°46'4 7.3
2017-Dec-02 11:30N 43°39' E 028°46'4 7.1
2017-Dec-02 11:00N 43°43' E 028°46'4 7.2
2017-Dec-02 10:30N 43°46' E 028°47'4 7.3
2017-Dec-02 10:01N 43°50' E 028°47'4 7.4
2017-Dec-02 09:30N 43°53' E 028°47'3 7.1
2017-Dec-02 09:00N 43°57' E 028°48'4 7.2
2017-Dec-02 08:29N 44°00' E 028°46'4 7.3
2017-Dec-02 07:58N 44°04' E 028°43'4 7.7
2017-Dec-02 07:28N 44°07' E 028°41'2 4.1
2017-Dec-02 06:58N 44°08' E 028°39'0 0.0
2017-Dec-02 06:28N 44°08' E 028°39'0 0.0
2017-Dec-02 05:58N 44°08' E 028°39'0 0.0
2017-Dec-02 05:28N 44°08' E 028°39'0 0.0
2017-Dec-02 04:58N 44°08' E 028°39'0 0.0
2017-Dec-02 04:28N 44°08' E 028°39'0 0.0
2017-Dec-02 03:58N 44°08' E 028°39'0 0.0
2017-Dec-02 03:28N 44°08' E 028°39'0 0.0
2017-Dec-02 02:58N 44°08' E 028°39'0 0.0
2017-Dec-02 02:29N 44°08' E 028°39'0 0.0
2017-Dec-02 01:59N 44°08' E 028°39'0 0.0
2017-Dec-02 01:30N 44°08' E 028°39'0 0.0
2017-Dec-02 01:00N 44°08' E 028°39'0 0.0
2017-Dec-02 00:30N 44°08' E 028°39'0 0.0
2017-Dec-02 00:00N 44°08' E 028°39'0 0.0
2017-Dec-01 23:30N 44°08' E 028°39'0 0.0
2017-Dec-01 23:00N 44°08' E 028°39'0 0.0
2017-Dec-01 22:30N 44°08' E 028°39'0 0.0
2017-Dec-01 22:00N 44°08' E 028°39'0 0.0
2017-Dec-01 21:30N 44°08' E 028°39'0 0.0
2017-Dec-01 21:00N 44°08' E 028°39'0 0.0
2017-Dec-01 20:30N 44°08' E 028°39'0 0.0
2017-Dec-01 20:00N 44°08' E 028°39'0 0.0
2017-Dec-01 19:30N 44°08' E 028°39'0 0.0
2017-Dec-01 18:57N 44°08' E 028°39'0 0.0
2017-Dec-01 18:30N 44°08' E 028°39'0 0.0
2017-Dec-01 18:00N 44°08' E 028°39'0 0.0
2017-Dec-01 17:30N 44°08' E 028°39'0 0.0
2017-Dec-01 17:00N 44°08' E 028°39'0 0.0
2017-Dec-01 16:30N 44°08' E 028°39'0 0.0
2017-Dec-01 16:00N 44°08' E 028°39'0 0.0
2017-Dec-01 15:30N 44°08' E 028°39'0 0.0
2017-Dec-01 15:00N 44°08' E 028°39'0 0.0
2017-Dec-01 14:30N 44°08' E 028°39'0 0.0
2017-Dec-01 14:00N 44°08' E 028°39'0 0.0
2017-Dec-01 13:30N 44°08' E 028°39'0 0.0
2017-Dec-01 13:00N 44°08' E 028°39'0 0.0
2017-Dec-01 12:30N 44°08' E 028°39'0 0.0
2017-Dec-01 12:00N 44°08' E 028°39'0 0.0
2017-Dec-01 11:30N 44°08' E 028°39'0 0.0
2017-Dec-01 11:00N 44°08' E 028°39'0 0.0
2017-Dec-01 10:30N 44°08' E 028°39'0 0.0
2017-Dec-01 09:57N 44°08' E 028°39'0 0.0
2017-Dec-01 09:30N 44°08' E 028°39'0 0.0
2017-Dec-01 09:00N 44°08' E 028°39'0 0.2
2017-Dec-01 08:30N 44°08' E 028°39'1 2.8
2017-Dec-01 08:00N 44°08' E 028°41'0 0.3
2017-Dec-01 07:30N 44°08' E 028°40'0 0.0
2017-Dec-01 07:00N 44°08' E 028°40'0 0.0
2017-Dec-01 06:30N 44°08' E 028°40'0 0.0
2017-Dec-01 06:00N 44°08' E 028°40'0 0.0
2017-Dec-01 05:30N 44°08' E 028°40'0 0.0
2017-Dec-01 05:00N 44°08' E 028°40'0 0.0
2017-Dec-01 04:30N 44°08' E 028°40'0 0.0
2017-Dec-01 04:00N 44°08' E 028°40'0 0.0
2017-Dec-01 03:30N 44°08' E 028°40'0 0.0
2017-Dec-01 03:00N 44°08' E 028°40'0 0.0
2017-Dec-01 02:30N 44°08' E 028°40'0 0.0
2017-Dec-01 02:00N 44°08' E 028°40'0 0.0
2017-Dec-01 01:27N 44°08' E 028°40'0 0.0
2017-Dec-01 01:00N 44°08' E 028°40'0 0.0
2017-Dec-01 00:30N 44°08' E 028°40'0 0.0
2017-Dec-01 00:00N 44°08' E 028°40'0 0.0
2017-Nov-30 23:30N 44°08' E 028°40'0 0.0
2017-Nov-30 23:00N 44°08' E 028°40'0 0.0
2017-Nov-30 22:30N 44°08' E 028°40'0 0.0
2017-Nov-30 22:00N 44°08' E 028°40'0 0.0
2017-Nov-30 21:30N 44°08' E 028°40'0 0.0
2017-Nov-30 21:00N 44°08' E 028°40'0 0.0
2017-Nov-30 20:30N 44°08' E 028°40'0 0.0
2017-Nov-30 20:00N 44°08' E 028°40'0 0.0
2017-Nov-30 19:30N 44°08' E 028°40'0 0.0
2017-Nov-30 18:59N 44°08' E 028°40'0 0.0
2017-Nov-30 18:29N 44°08' E 028°40'0 0.0
2017-Nov-30 17:59N 44°08' E 028°40'0 0.0
2017-Nov-30 17:29N 44°08' E 028°40'0 0.0
2017-Nov-30 16:59N 44°08' E 028°40'0 0.0
2017-Nov-30 16:29N 44°08' E 028°40'0 0.0
2017-Nov-30 15:59N 44°08' E 028°40'0 0.0
2017-Nov-30 15:29N 44°08' E 028°40'0 0.0
2017-Nov-30 14:59N 44°08' E 028°40'0 0.0
2017-Nov-30 14:29N 44°08' E 028°40'0 0.0
2017-Nov-30 13:59N 44°08' E 028°40'0 0.0
2017-Nov-30 13:29N 44°08' E 028°40'0 0.0
2017-Nov-30 12:59N 44°08' E 028°40'0 0.0
2017-Nov-30 12:29N 44°08' E 028°40'0 0.0
2017-Nov-30 11:59N 44°08' E 028°40'0 0.0
2017-Nov-30 11:29N 44°08' E 028°40'0 0.0
2017-Nov-30 10:59N 44°08' E 028°40'0 0.0
2017-Nov-30 10:29N 44°08' E 028°40'0 0.0
2017-Nov-30 09:58N 44°08' E 028°40'0 0.0
2017-Nov-30 09:28N 44°08' E 028°40'0 0.0
2017-Nov-30 08:58N 44°08' E 028°40'0 0.0
2017-Nov-30 08:28N 44°08' E 028°40'0 0.0
2017-Nov-30 07:58N 44°08' E 028°40'0 0.0
2017-Nov-30 07:28N 44°08' E 028°40'0 0.0
2017-Nov-30 06:55N 44°08' E 028°40'0 0.0
2017-Nov-30 06:30N 44°08' E 028°40'0 0.0
2017-Nov-30 06:00N 44°08' E 028°40'0 0.0
2017-Nov-30 05:30N 44°08' E 028°40'0 0.0
2017-Nov-30 05:00N 44°08' E 028°40'0 0.0
2017-Nov-30 04:30N 44°08' E 028°40'0 0.0
2017-Nov-30 04:00N 44°08' E 028°40'0 0.0
2017-Nov-30 03:30N 44°08' E 028°40'0 0.0
2017-Nov-30 03:00N 44°08' E 028°40'0 0.0
2017-Nov-30 02:30N 44°08' E 028°40'0 0.0
2017-Nov-30 01:57N 44°08' E 028°40'0 0.0
2017-Nov-30 01:27N 44°08' E 028°40'0 0.0
2017-Nov-30 01:00N 44°08' E 028°40'0 0.0
2017-Nov-30 00:30N 44°08' E 028°40'0 0.0
2017-Nov-30 00:00N 44°08' E 028°40'0 0.0
2017-Nov-29 23:30N 44°08' E 028°40'0 0.0
2017-Nov-29 23:00N 44°08' E 028°40'0 0.0
2017-Nov-29 22:30N 44°08' E 028°40'0 0.1
2017-Nov-29 22:00N 44°08' E 028°41'0 0.1
2017-Nov-29 21:30N 44°08' E 028°40'0 0.1
2017-Nov-29 21:00N 44°08' E 028°40'0 0.0
2017-Nov-29 20:30N 44°08' E 028°40'0 0.0
2017-Nov-29 19:54N 44°08' E 028°40'0 0.0
2017-Nov-29 19:30N 44°08' E 028°40'0 0.0
2017-Nov-29 19:00N 44°08' E 028°40'0 0.0
2017-Nov-29 18:30N 44°08' E 028°41'0 0.0
2017-Nov-29 18:00N 44°08' E 028°40'0 0.0
2017-Nov-29 17:30N 44°08' E 028°41'0 0.0
2017-Nov-29 17:00N 44°08' E 028°40'0 0.0
2017-Nov-29 16:30N 44°08' E 028°40'0 0.0
2017-Nov-29 16:00N 44°08' E 028°40'0 0.0
2017-Nov-29 15:30N 44°08' E 028°40'0 0.0
2017-Nov-29 15:00N 44°08' E 028°40'0 0.0
2017-Nov-29 14:30N 44°08' E 028°40'0 0.0
2017-Nov-29 14:00N 44°08' E 028°41'0 0.0
2017-Nov-29 13:30N 44°08' E 028°41'0 0.0
2017-Nov-29 13:00N 44°08' E 028°41'0 0.0
2017-Nov-29 12:30N 44°08' E 028°41'0 0.0
2017-Nov-29 12:00N 44°08' E 028°41'0 0.0
2017-Nov-29 11:30N 44°08' E 028°41'0 0.0
2017-Nov-29 11:00N 44°08' E 028°41'0 0.0
2017-Nov-29 10:30N 44°08' E 028°41'0 0.0
2017-Nov-29 09:57N 44°08' E 028°41'0 0.0
2017-Nov-29 09:30N 44°08' E 028°40'0 0.0
2017-Nov-29 09:00N 44°08' E 028°41'0 0.0
2017-Nov-29 08:30N 44°08' E 028°41'0 0.0
2017-Nov-29 08:00N 44°08' E 028°41'0 0.5
2017-Nov-29 07:31N 44°07' E 028°41'2 4.2
2017-Nov-29 07:00N 44°06' E 028°43'3 6.2
2017-Nov-29 06:30N 44°05' E 028°47'4 7.3
2017-Nov-29 06:00N 44°05' E 028°52'4 7.4
2017-Nov-29 05:30N 44°04' E 028°57'4 7.5
2017-Nov-29 05:01N 44°04' E 029°02'4 7.5
2017-Nov-29 04:30N 44°04' E 029°07'4 7.4
2017-Nov-29 04:00N 44°05' E 029°12'4 7.1
2017-Nov-29 03:30N 44°04' E 029°17'4 7.2
2017-Nov-29 03:00N 44°05' E 029°22'  
2017-Nov-26 01:26N 45°10' E 036°29'3 7.1
2017-Nov-26 00:59N 45°13' E 036°28'3 6.1
2017-Nov-26 00:30N 45°16' E 036°28'3 5.4
2017-Nov-25 23:59N 45°19' E 036°31'3 6.9
2017-Nov-25 23:30N 45°20' E 036°35'3 6.7
2017-Nov-25 22:59N 45°21' E 036°39'3 6.5
2017-Nov-25 22:30N 45°25' E 036°40'4 7.4
2017-Nov-25 21:59N 45°28' E 036°39'0 0.8
2017-Nov-25 21:30N 45°29' E 036°39'0 0.0
2017-Nov-25 21:00N 45°29' E 036°39'0 0.0
2017-Nov-25 20:30N 45°29' E 036°39'0 0.0
2017-Nov-25 20:00N 45°29' E 036°39'0 0.1
2017-Nov-25 19:30N 45°29' E 036°39'3 5.7
2017-Nov-25 19:00N 45°31' E 036°42'3 7.1
2017-Nov-25 18:30N 45°34' E 036°45'  
Track history (hours):
 
Tides and Currents Weather Stations Pressure Air Temp Water Temp Dewpoint Dewpoint Depression Visibility Wind Speed Wind Dir Waves Ship Positions

Cea Eagle

Last reported at 2017-Dec-02 12:37 UTC. Time now 2017-Dec-12 23:55 UTC.
Position N 43°31' E 028°43'.
Warning: this ship's position is 10 days out of date.

Length 228 m.

Type: Ship. MMSI: 351071424.

Date/timePositionNaut miles runAvg speedWind from/ knotsBaromVisibWave heightAir tempDewpointWater temp
2017-Dec-02 12:37N 43°31' E 028°43'1 7.4
2017-Dec-02 12:31N 43°32' E 028°44'4 7.0
2017-Dec-02 12:01N 43°35' E 028°46'4 7.3
2017-Dec-02 11:30N 43°39' E 028°46'4 7.1
2017-Dec-02 11:00N 43°43' E 028°46'4 7.2
2017-Dec-02 10:30N 43°46' E 028°47'4 7.3
2017-Dec-02 10:01N 43°50' E 028°47'4 7.4
2017-Dec-02 09:30N 43°53' E 028°47'3 7.1
2017-Dec-02 09:00N 43°57' E 028°48'4 7.2
2017-Dec-02 08:29N 44°00' E 028°46'4 7.3
2017-Dec-02 07:58N 44°04' E 028°43'4 7.7
2017-Dec-02 07:28N 44°07' E 028°41'2 4.1
2017-Dec-02 06:58N 44°08' E 028°39'0 0.0
2017-Dec-02 06:28N 44°08' E 028°39'0 0.0
2017-Dec-02 05:58N 44°08' E 028°39'0 0.0
2017-Dec-02 05:28N 44°08' E 028°39'0 0.0
2017-Dec-02 04:58N 44°08' E 028°39'0 0.0
2017-Dec-02 04:28N 44°08' E 028°39'0 0.0
2017-Dec-02 03:58N 44°08' E 028°39'0 0.0
2017-Dec-02 03:28N 44°08' E 028°39'0 0.0
2017-Dec-02 02:58N 44°08' E 028°39'0 0.0
2017-Dec-02 02:29N 44°08' E 028°39'0 0.0
2017-Dec-02 01:59N 44°08' E 028°39'0 0.0
2017-Dec-02 01:30N 44°08' E 028°39'0 0.0
2017-Dec-02 01:00N 44°08' E 028°39'0 0.0
2017-Dec-02 00:30N 44°08' E 028°39'0 0.0
2017-Dec-02 00:00N 44°08' E 028°39'0 0.0
2017-Dec-01 23:30N 44°08' E 028°39'0 0.0
2017-Dec-01 23:00N 44°08' E 028°39'0 0.0
2017-Dec-01 22:30N 44°08' E 028°39'0 0.0
2017-Dec-01 22:00N 44°08' E 028°39'0 0.0
2017-Dec-01 21:30N 44°08' E 028°39'0 0.0
2017-Dec-01 21:00N 44°08' E 028°39'0 0.0
2017-Dec-01 20:30N 44°08' E 028°39'0 0.0
2017-Dec-01 20:00N 44°08' E 028°39'0 0.0
2017-Dec-01 19:30N 44°08' E 028°39'0 0.0
2017-Dec-01 18:57N 44°08' E 028°39'0 0.0
2017-Dec-01 18:30N 44°08' E 028°39'0 0.0
2017-Dec-01 18:00N 44°08' E 028°39'0 0.0
2017-Dec-01 17:30N 44°08' E 028°39'0 0.0
2017-Dec-01 17:00N 44°08' E 028°39'0 0.0
2017-Dec-01 16:30N 44°08' E 028°39'0 0.0
2017-Dec-01 16:00N 44°08' E 028°39'0 0.0
2017-Dec-01 15:30N 44°08' E 028°39'0 0.0
2017-Dec-01 15:00N 44°08' E 028°39'0 0.0
2017-Dec-01 14:30N 44°08' E 028°39'0 0.0
2017-Dec-01 14:00N 44°08' E 028°39'0 0.0
2017-Dec-01 13:30N 44°08' E 028°39'0 0.0
2017-Dec-01 13:00N 44°08' E 028°39'0 0.0
2017-Dec-01 12:30N 44°08' E 028°39'0 0.0
2017-Dec-01 12:00N 44°08' E 028°39'0 0.0
2017-Dec-01 11:30N 44°08' E 028°39'0 0.0
2017-Dec-01 11:00N 44°08' E 028°39'0 0.0
2017-Dec-01 10:30N 44°08' E 028°39'0 0.0
2017-Dec-01 09:57N 44°08' E 028°39'0 0.0
2017-Dec-01 09:30N 44°08' E 028°39'0 0.0
2017-Dec-01 09:00N 44°08' E 028°39'0 0.2
2017-Dec-01 08:30N 44°08' E 028°39'1 2.8
2017-Dec-01 08:00N 44°08' E 028°41'0 0.3
2017-Dec-01 07:30N 44°08' E 028°40'0 0.0
2017-Dec-01 07:00N 44°08' E 028°40'0 0.0
2017-Dec-01 06:30N 44°08' E 028°40'0 0.0
2017-Dec-01 06:00N 44°08' E 028°40'0 0.0
2017-Dec-01 05:30N 44°08' E 028°40'0 0.0
2017-Dec-01 05:00N 44°08' E 028°40'0 0.0
2017-Dec-01 04:30N 44°08' E 028°40'0 0.0
2017-Dec-01 04:00N 44°08' E 028°40'0 0.0
2017-Dec-01 03:30N 44°08' E 028°40'0 0.0
2017-Dec-01 03:00N 44°08' E 028°40'0 0.0
2017-Dec-01 02:30N 44°08' E 028°40'0 0.0
2017-Dec-01 02:00N 44°08' E 028°40'0 0.0
2017-Dec-01 01:27N 44°08' E 028°40'0 0.0
2017-Dec-01 01:00N 44°08' E 028°40'0 0.0
2017-Dec-01 00:30N 44°08' E 028°40'0 0.0
2017-Dec-01 00:00N 44°08' E 028°40'0 0.0
2017-Nov-30 23:30N 44°08' E 028°40'0 0.0
2017-Nov-30 23:00N 44°08' E 028°40'0 0.0
2017-Nov-30 22:30N 44°08' E 028°40'0 0.0
2017-Nov-30 22:00N 44°08' E 028°40'0 0.0
2017-Nov-30 21:30N 44°08' E 028°40'0 0.0
2017-Nov-30 21:00N 44°08' E 028°40'0 0.0
2017-Nov-30 20:30N 44°08' E 028°40'0 0.0
2017-Nov-30 20:00N 44°08' E 028°40'0 0.0
2017-Nov-30 19:30N 44°08' E 028°40'0 0.0
2017-Nov-30 18:59N 44°08' E 028°40'0 0.0
2017-Nov-30 18:29N 44°08' E 028°40'0 0.0
2017-Nov-30 17:59N 44°08' E 028°40'0 0.0
2017-Nov-30 17:29N 44°08' E 028°40'0 0.0
2017-Nov-30 16:59N 44°08' E 028°40'0 0.0
2017-Nov-30 16:29N 44°08' E 028°40'0 0.0
2017-Nov-30 15:59N 44°08' E 028°40'0 0.0
2017-Nov-30 15:29N 44°08' E 028°40'0 0.0
2017-Nov-30 14:59N 44°08' E 028°40'0 0.0
2017-Nov-30 14:29N 44°08' E 028°40'0 0.0
2017-Nov-30 13:59N 44°08' E 028°40'0 0.0
2017-Nov-30 13:29N 44°08' E 028°40'0 0.0
2017-Nov-30 12:59N 44°08' E 028°40'0 0.0
2017-Nov-30 12:29N 44°08' E 028°40'0 0.0
2017-Nov-30 11:59N 44°08' E 028°40'0 0.0
2017-Nov-30 11:29N 44°08' E 028°40'0 0.0
2017-Nov-30 10:59N 44°08' E 028°40'0 0.0
2017-Nov-30 10:29N 44°08' E 028°40'0 0.0
2017-Nov-30 09:58N 44°08' E 028°40'0 0.0
2017-Nov-30 09:28N 44°08' E 028°40'0 0.0
2017-Nov-30 08:58N 44°08' E 028°40'0 0.0
2017-Nov-30 08:28N 44°08' E 028°40'0 0.0
2017-Nov-30 07:58N 44°08' E 028°40'0 0.0
2017-Nov-30 07:28N 44°08' E 028°40'0 0.0
2017-Nov-30 06:55N 44°08' E 028°40'0 0.0
2017-Nov-30 06:30N 44°08' E 028°40'0 0.0
2017-Nov-30 06:00N 44°08' E 028°40'0 0.0
2017-Nov-30 05:30N 44°08' E 028°40'0 0.0
2017-Nov-30 05:00N 44°08' E 028°40'0 0.0
2017-Nov-30 04:30N 44°08' E 028°40'0 0.0
2017-Nov-30 04:00N 44°08' E 028°40'0 0.0
2017-Nov-30 03:30N 44°08' E 028°40'0 0.0
2017-Nov-30 03:00N 44°08' E 028°40'0 0.0
2017-Nov-30 02:30N 44°08' E 028°40'0 0.0
2017-Nov-30 01:57N 44°08' E 028°40'0 0.0
2017-Nov-30 01:27N 44°08' E 028°40'0 0.0
2017-Nov-30 01:00N 44°08' E 028°40'0 0.0
2017-Nov-30 00:30N 44°08' E 028°40'0 0.0
2017-Nov-30 00:00N 44°08' E 028°40'0 0.0
2017-Nov-29 23:30N 44°08' E 028°40'0 0.0
2017-Nov-29 23:00N 44°08' E 028°40'0 0.0
2017-Nov-29 22:30N 44°08' E 028°40'0 0.1
2017-Nov-29 22:00N 44°08' E 028°41'0 0.1
2017-Nov-29 21:30N 44°08' E 028°40'0 0.1
2017-Nov-29 21:00N 44°08' E 028°40'0 0.0
2017-Nov-29 20:30N 44°08' E 028°40'0 0.0
2017-Nov-29 19:54N 44°08' E 028°40'0 0.0
2017-Nov-29 19:30N 44°08' E 028°40'0 0.0
2017-Nov-29 19:00N 44°08' E 028°40'0 0.0
2017-Nov-29 18:30N 44°08' E 028°41'0 0.0
2017-Nov-29 18:00N 44°08' E 028°40'0 0.0
2017-Nov-29 17:30N 44°08' E 028°41'0 0.0
2017-Nov-29 17:00N 44°08' E 028°40'0 0.0
2017-Nov-29 16:30N 44°08' E 028°40'0 0.0
2017-Nov-29 16:00N 44°08' E 028°40'0 0.0
2017-Nov-29 15:30N 44°08' E 028°40'0 0.0
2017-Nov-29 15:00N 44°08' E 028°40'0 0.0
2017-Nov-29 14:30N 44°08' E 028°40'0 0.0
2017-Nov-29 14:00N 44°08' E 028°41'0 0.0
2017-Nov-29 13:30N 44°08' E 028°41'0 0.0
2017-Nov-29 13:00N 44°08' E 028°41'0 0.0
2017-Nov-29 12:30N 44°08' E 028°41'0 0.0
2017-Nov-29 12:00N 44°08' E 028°41'0 0.0
2017-Nov-29 11:30N 44°08' E 028°41'0 0.0
2017-Nov-29 11:00N 44°08' E 028°41'0 0.0
2017-Nov-29 10:30N 44°08' E 028°41'0 0.0
2017-Nov-29 09:57N 44°08' E 028°41'0 0.0
2017-Nov-29 09:30N 44°08' E 028°40'0 0.0
2017-Nov-29 09:00N 44°08' E 028°41'0 0.0
2017-Nov-29 08:30N 44°08' E 028°41'0 0.0
2017-Nov-29 08:00N 44°08' E 028°41'0 0.5
2017-Nov-29 07:31N 44°07' E 028°41'2 4.2
2017-Nov-29 07:00N 44°06' E 028°43'3 6.2
2017-Nov-29 06:30N 44°05' E 028°47'4 7.3
2017-Nov-29 06:00N 44°05' E 028°52'4 7.4
2017-Nov-29 05:30N 44°04' E 028°57'4 7.5
2017-Nov-29 05:01N 44°04' E 029°02'4 7.5
2017-Nov-29 04:30N 44°04' E 029°07'4 7.4
2017-Nov-29 04:00N 44°05' E 029°12'4 7.1
2017-Nov-29 03:30N 44°04' E 029°17'4 7.2
2017-Nov-29 03:00N 44°05' E 029°22'  
2017-Nov-26 01:26N 45°10' E 036°29'3 7.1
2017-Nov-26 00:59N 45°13' E 036°28'3 6.1
2017-Nov-26 00:30N 45°16' E 036°28'3 5.4
2017-Nov-25 23:59N 45°19' E 036°31'3 6.9
2017-Nov-25 23:30N 45°20' E 036°35'3 6.7
2017-Nov-25 22:59N 45°21' E 036°39'3 6.5
2017-Nov-25 22:30N 45°25' E 036°40'4 7.4
2017-Nov-25 21:59N 45°28' E 036°39'0 0.8
2017-Nov-25 21:30N 45°29' E 036°39'0 0.0
2017-Nov-25 21:00N 45°29' E 036°39'0 0.0
2017-Nov-25 20:30N 45°29' E 036°39'0 0.0
2017-Nov-25 20:00N 45°29' E 036°39'0 0.1
2017-Nov-25 19:30N 45°29' E 036°39'3 5.7
2017-Nov-25 19:00N 45°31' E 036°42'3 7.1
2017-Nov-25 18:30N 45°34' E 036°45'  

Dump ship's entire track history